Portada
METAR-TAF:

METAR-TAF

Aeroports :

Lancaster, Carolina del Sud, Estats Units d'Amèrica

latitud: 34-43-22N, longitud: 080-51-17W, altitud: 148 m

Observació

L'informe es va fer fa 1 hora i 0 minuts, a les 21:35 UTC
Vent 5 kt del Nord-Est
Temperatura 5°C
Humitat 35%
Pressió 1027 hPa
Visibilitat: 16.1 km
Cel clar

METAR: KLKR 132135Z AUTO 05005KT 10SM CLR 05/M09 A3032 RMK AO2

Hora: 17:35 (22:35 UTC)


TAF: manca

Observacions i pronòstics meteorològics de més de 4000 aeroports (METAR i TAF).

Les estacions disponibles són els punts grocs i vermells al mapa.

Posi el ratolí al punt desitjat per veure el nom de l'estació.

Feu clic per veure les observacions i els pronòstics meteorològics.

Per canviar el mapa: feu clic els botons verds amb una creu de color negre per apropar; al botó verd amb un guió per allunyar la imatge; o en les fletxes verdes per a mapes adjacents.


METAR-TAF: